This is the latest recevied weather packets stored in our database for station/object EA4HBE-10. If no packets are shown the sender has not sent any weather packets the latest 10 day(s).
| Time | Temp. | Humidity | Pressure | Rain* | Wind** | Luminosity | Snow |
|---|---|---|---|---|---|---|---|
| 1777716666 | 23.33° C | 51% | 1016.2 hPa | - | - | - | - |
| 1777715766 | 22.78° C | 53% | 1016 hPa | - | - | - | - |
| 1777714866 | 21.67° C | 55% | 1016.1 hPa | - | - | - | - |
| 1777713966 | 23.33° C | 53% | 1016.6 hPa | - | - | - | - |
| 1777713065 | 22.22° C | 54% | 1016.9 hPa | - | - | - | - |
| 1777712165 | 22.22° C | 55% | 1016.7 hPa | - | - | - | - |
| 1777711265 | 22.22° C | 57% | 1016.6 hPa | - | - | - | - |
| 1777710365 | 21.11° C | 60% | 1016.4 hPa | - | - | - | - |
| 1777709465 | 21.11° C | 61% | 1016.3 hPa | - | - | - | - |
| 1777708565 | 20.56° C | 64% | 1016.4 hPa | - | - | - | - |
| 1777707665 | 20° C | 67% | 1016.6 hPa | - | - | - | - |
| 1777707622 | 20° C | 67% | 1016.5 hPa | - | - | - | - |
| 1777707601 | 20° C | 68% | 1016.5 hPa | - | - | - | - |
| 1777707556 | 20° C | 67% | 1016.6 hPa | - | - | - | - |
| 1777707535 | 20° C | 67% | 1016.5 hPa | - | - | - | - |
| 1777707513 | 20° C | 67% | 1016.6 hPa | - | - | - | - |
| 1777707492 | 20° C | 68% | 1016.6 hPa | - | - | - | - |
| 1777707467 | 20° C | 67% | 1016.6 hPa | - | - | - | - |
| 1777707446 | 19.44° C | 68% | 1016.6 hPa | - | - | - | - |
| 1777707403 | 19.44° C | 68% | 1016.6 hPa | - | - | - | - |
| 1777707361 | 19.44° C | 68% | 1016.6 hPa | - | - | - | - |
| 1777707319 | 19.44° C | 68% | 1016.6 hPa | - | - | - | - |
| 1777707297 | 19.44° C | 68% | 1016.7 hPa | - | - | - | - |
| 1777707275 | 19.44° C | 68% | 1016.6 hPa | - | - | - | - |
| 1777707231 | 19.44° C | 69% | 1016.7 hPa | - | - | - | - |
* Rain since midnight (hover to see other rain measurements)
** Current wind speed in m/s (hover to see current wind gust speed)